createdAt,value
2018-06-20T00:03:04.562Z,86.10
2018-06-20T00:07:08.392Z,86.20
2018-06-20T00:11:11.996Z,85.80
2018-06-20T00:15:16.027Z,86.50
2018-06-20T00:19:19.802Z,86.00
2018-06-20T00:23:23.619Z,85.40
2018-06-20T00:27:27.103Z,86.10
2018-06-20T00:31:30.676Z,86.10
2018-06-20T00:35:38.148Z,86.50
2018-06-20T00:39:42.072Z,86.60
2018-06-20T00:43:47.186Z,86.80
2018-06-20T00:47:51.430Z,87.30
2018-06-20T00:51:55.143Z,87.20
2018-06-20T00:56:10.140Z,87.10
2018-06-20T01:00:14.452Z,86.80
2018-06-20T01:04:18.920Z,86.70
2018-06-20T01:12:26.021Z,87.30
2018-06-20T01:16:29.550Z,87.10
2018-06-20T01:20:33.103Z,87.10
2018-06-20T01:24:36.827Z,87.00
2018-06-20T01:28:40.473Z,87.00
2018-06-20T01:32:44.618Z,87.40
2018-06-20T01:36:48.640Z,87.50
2018-06-20T01:40:53.416Z,87.80
2018-06-20T01:44:57.039Z,87.90
2018-06-20T01:49:00.602Z,88.00
2018-06-20T01:53:04.606Z,87.90
2018-06-20T01:57:08.359Z,87.90
2018-06-20T02:01:12.538Z,87.20
2018-06-20T02:05:16.605Z,87.50
2018-06-20T02:09:20.999Z,88.00
2018-06-20T02:13:24.839Z,88.20
2018-06-20T02:17:28.423Z,88.20
2018-06-20T02:21:31.947Z,88.20
2018-06-20T02:25:35.608Z,88.10
2018-06-20T02:29:39.180Z,88.30
2018-06-20T02:33:42.966Z,88.90
2018-06-20T02:37:47.238Z,89.40
2018-06-20T02:41:51.224Z,89.30
2018-06-20T02:45:54.928Z,89.30
2018-06-20T02:49:58.706Z,88.80
2018-06-20T02:54:02.295Z,88.50
2018-06-20T02:58:06.029Z,88.30
2018-06-20T03:02:10.000Z,88.60
2018-06-20T03:06:13.912Z,88.20
2018-06-20T03:10:17.886Z,88.20
2018-06-20T03:14:21.935Z,87.70
2018-06-20T03:18:25.593Z,87.60
2018-06-20T03:22:29.158Z,88.00
2018-06-20T03:26:32.830Z,88.90
2018-06-20T03:30:36.377Z,89.20
2018-06-20T03:34:40.435Z,89.40
2018-06-20T03:38:44.681Z,89.70
2018-06-20T03:42:48.522Z,89.90
2018-06-20T03:46:52.127Z,90.00
2018-06-20T03:50:55.669Z,89.90
2018-06-20T03:54:59.383Z,90.00
2018-06-20T03:59:03.054Z,90.00
2018-06-20T04:03:06.732Z,89.50
2018-06-20T04:07:10.282Z,89.50
2018-06-20T04:11:14.253Z,89.70
2018-06-20T04:15:18.084Z,89.90
2018-06-20T04:19:22.035Z,89.60
2018-06-20T04:23:25.540Z,89.90
2018-06-20T04:27:29.047Z,89.70
2018-06-20T04:31:32.655Z,88.40
2018-06-20T04:35:36.257Z,88.40
2018-06-20T04:39:39.984Z,88.60
2018-06-20T04:51:50.955Z,89.40
2018-06-20T04:55:54.716Z,88.70
2018-06-20T04:59:58.275Z,88.70
2018-06-20T05:04:01.859Z,88.80
2018-06-20T05:08:05.483Z,88.60
2018-06-20T05:12:09.116Z,87.60
2018-06-20T05:16:13.162Z,87.80
2018-06-20T05:20:17.201Z,87.90
2018-06-20T05:24:21.328Z,87.50
2018-06-20T05:28:25.211Z,87.30
2018-06-20T05:32:28.787Z,87.30
2018-06-20T05:36:32.315Z,87.10
2018-06-20T05:40:36.171Z,87.70
2018-06-20T05:44:39.819Z,87.60
2018-06-20T05:48:44.678Z,87.60
2018-06-20T05:52:48.481Z,86.80
2018-06-20T05:56:52.334Z,86.10
2018-06-20T06:00:55.942Z,84.70
2018-06-20T06:04:59.540Z,82.80
2018-06-20T06:09:03.374Z,81.60
2018-06-20T06:13:07.270Z,81.30
2018-06-20T06:17:10.828Z,81.60
2018-06-20T06:21:14.890Z,80.40
2018-06-20T06:25:19.170Z,78.80
2018-06-20T06:29:23.042Z,79.00
2018-06-20T06:33:26.566Z,78.00
2018-06-20T06:37:30.135Z,77.10
2018-06-20T06:41:33.827Z,75.80
2018-06-20T06:45:37.382Z,72.10
2018-06-20T06:49:40.976Z,70.40
2018-06-20T06:53:45.447Z,69.20
2018-06-20T06:57:49.091Z,67.90
2018-06-20T07:01:52.709Z,64.80
2018-06-20T07:05:59.768Z,63.90
2018-06-20T07:10:03.556Z,61.50
2018-06-20T07:14:07.271Z,60.10
2018-06-20T07:18:10.849Z,60.60
2018-06-20T07:22:14.591Z,57.90
2018-06-20T07:26:18.365Z,57.00
2018-06-20T07:30:21.947Z,57.00
2018-06-20T07:34:25.835Z,55.90
2018-06-20T07:38:29.347Z,54.50
2018-06-20T07:42:33.217Z,53.10
2018-06-20T07:46:36.947Z,53.80
2018-06-20T07:50:41.589Z,52.50
2018-06-20T07:54:45.392Z,50.60
2018-06-20T07:58:54.303Z,50.70
2018-06-20T08:03:14.347Z,50.80
2018-06-20T08:07:23.236Z,54.00
2018-06-20T08:11:32.027Z,54.80
2018-06-20T08:15:41.818Z,55.20
2018-06-20T08:19:52.019Z,56.50
2018-06-20T08:23:55.830Z,60.50
2018-06-20T08:28:01.465Z,60.90
2018-06-20T08:32:05.113Z,54.70
2018-06-20T08:36:08.650Z,54.40
2018-06-20T08:40:12.293Z,56.00
2018-06-20T08:44:16.112Z,57.00
2018-06-20T08:48:19.706Z,60.60
2018-06-20T08:52:23.572Z,61.90
2018-06-20T09:00:35.593Z,61.10
2018-06-20T09:05:42.862Z,62.10
2018-06-20T09:09:51.959Z,63.30
2018-06-20T09:14:00.861Z,58.40
2018-06-20T09:18:10.051Z,53.90
2018-06-20T09:22:14.443Z,53.20
2018-06-20T09:26:18.180Z,52.90
2018-06-20T09:30:21.896Z,53.60
2018-06-20T09:34:25.418Z,51.90
2018-06-20T09:38:29.334Z,54.50
2018-06-20T09:42:33.022Z,50.40
2018-06-20T09:46:36.751Z,50.40
2018-06-20T09:50:50.087Z,53.40
2018-06-20T09:54:53.809Z,55.70
2018-06-20T09:59:01.600Z,56.90
2018-06-20T10:03:10.678Z,57.40
2018-06-20T10:07:14.978Z,53.60
2018-06-20T10:12:28.252Z,52.20
2018-06-20T10:16:32.249Z,50.60
2018-06-20T10:20:35.890Z,53.10
2018-06-20T10:24:39.446Z,55.30
2018-06-20T10:28:44.917Z,57.30
2018-06-20T10:32:48.688Z,53.20
2018-06-20T10:36:52.318Z,50.90
2018-06-20T10:40:56.194Z,50.50
2018-06-20T10:47:06.804Z,51.00
2018-06-20T10:51:14.642Z,53.20
2018-06-20T10:55:19.002Z,57.10
2018-06-20T10:59:28.923Z,55.20
2018-06-20T11:03:38.007Z,56.60
2018-06-20T11:07:46.892Z,54.30
2018-06-20T11:11:55.810Z,53.10
2018-06-20T11:15:59.446Z,52.20
2018-06-20T11:20:08.349Z,50.50
2018-06-20T11:24:12.219Z,50.40
2018-06-20T11:28:17.070Z,51.50
2018-06-20T11:32:20.890Z,49.30
2018-06-20T11:36:24.614Z,54.10
2018-06-20T11:40:28.170Z,53.00
2018-06-20T11:44:31.728Z,53.90
2018-06-20T11:48:36.367Z,55.90
2018-06-20T11:52:46.015Z,54.90
2018-06-20T11:56:49.654Z,53.30
2018-06-20T12:03:06.174Z,50.30
2018-06-20T12:07:15.214Z,55.20
2018-06-20T12:11:24.191Z,54.80
2018-06-20T12:15:33.127Z,54.90
2018-06-20T12:19:42.081Z,53.00
2018-06-20T12:23:51.118Z,54.00
2018-06-20T12:27:59.917Z,54.50
2018-06-20T12:32:08.859Z,56.30
2018-06-20T12:36:18.171Z,57.90
2018-06-20T12:40:28.148Z,61.00
2018-06-20T12:44:37.071Z,60.00
2018-06-20T12:48:40.632Z,58.90
2018-06-20T12:52:45.130Z,57.40
2018-06-20T12:56:49.028Z,55.10
2018-06-20T13:00:53.975Z,54.70
2018-06-20T13:04:57.507Z,56.10
2018-06-20T13:09:01.472Z,58.40
2018-06-20T13:13:06.115Z,61.40
2018-06-20T13:17:09.681Z,62.20
2018-06-20T13:21:15.585Z,62.80
2018-06-20T13:25:19.334Z,63.80
2018-06-20T13:29:24.805Z,62.90
2018-06-20T13:33:37.448Z,59.10
2018-06-20T13:37:47.348Z,59.50
2018-06-20T13:42:05.530Z,56.70
2018-06-20T13:46:16.448Z,52.30
2018-06-20T13:50:20.164Z,54.00
2018-06-20T13:54:27.602Z,53.10
2018-06-20T13:58:31.672Z,54.10
2018-06-20T14:06:38.874Z,55.90
2018-06-20T14:10:46.434Z,58.00
2018-06-20T14:14:50.282Z,52.80
2018-06-20T14:18:53.820Z,53.80
2018-06-20T14:22:57.484Z,51.60
2018-06-20T14:27:01.123Z,53.60
2018-06-20T14:31:10.172Z,54.10
2018-06-20T14:35:19.526Z,56.30
2018-06-20T14:39:28.475Z,60.40
2018-06-20T14:43:37.320Z,64.40
2018-06-20T14:55:59.599Z,66.60
2018-06-20T15:00:03.402Z,66.40
2018-06-20T15:04:07.687Z,61.20
2018-06-20T15:08:11.375Z,65.00
2018-06-20T15:12:22.041Z,61.80
2018-06-20T15:16:31.074Z,63.00
2018-06-20T15:20:35.961Z,60.40
2018-06-20T15:24:41.524Z,62.90
2018-06-20T15:28:50.755Z,62.60
2018-06-20T15:35:05.519Z,63.90
2018-06-20T15:39:11.576Z,61.50
2018-06-20T15:43:15.507Z,59.80
2018-06-20T15:47:20.217Z,55.10
2018-06-20T15:51:23.950Z,57.90
2018-06-20T15:55:27.508Z,61.00
2018-06-20T15:59:33.510Z,55.30
2018-06-20T16:03:40.707Z,53.10
2018-06-20T16:07:45.998Z,57.80
2018-06-20T16:11:49.843Z,57.00
2018-06-20T16:15:53.479Z,60.30
2018-06-20T16:20:07.325Z,56.90
2018-06-20T16:24:18.911Z,52.60
2018-06-20T16:28:28.177Z,53.40
2018-06-20T16:32:32.880Z,51.00
2018-06-20T16:36:36.681Z,50.70
2018-06-20T16:40:40.383Z,56.80
2018-06-20T16:44:45.530Z,55.90
2018-06-20T16:48:49.369Z,57.10
2018-06-20T16:52:53.079Z,60.40
2018-06-20T17:01:12.594Z,62.70
2018-06-20T17:05:17.300Z,61.00
2018-06-20T17:09:24.388Z,62.70
2018-06-20T17:14:32.796Z,64.30
2018-06-20T17:19:45.659Z,64.20
2018-06-20T17:23:54.786Z,65.00
2018-06-20T17:28:00.715Z,62.90
2018-06-20T17:32:04.336Z,64.70
2018-06-20T17:36:09.242Z,64.00
2018-06-20T17:40:15.878Z,65.70
2018-06-20T17:44:19.864Z,65.40
2018-06-20T17:48:23.727Z,63.20
2018-06-20T17:52:32.816Z,64.30
2018-06-20T17:56:36.418Z,62.00
2018-06-20T18:00:47.324Z,63.40
2018-06-20T18:04:56.383Z,65.40
2018-06-20T18:09:05.858Z,66.40
2018-06-20T18:13:09.867Z,65.90
2018-06-20T18:17:13.723Z,67.00
2018-06-20T18:21:17.346Z,65.50
2018-06-20T18:25:21.100Z,65.20
2018-06-20T18:29:24.867Z,62.00
2018-06-20T18:33:33.538Z,66.50
2018-06-20T18:37:37.188Z,66.90
2018-06-20T18:41:40.833Z,67.00
2018-06-20T18:45:45.653Z,67.20
2018-06-20T18:49:51.391Z,66.90
2018-06-20T18:53:55.208Z,67.90
2018-06-20T18:58:04.047Z,69.50
2018-06-20T19:02:13.194Z,69.50
2018-06-20T19:06:24.845Z,70.60
2018-06-20T19:10:37.800Z,70.60
2018-06-20T19:14:42.606Z,70.90
2018-06-20T19:18:46.433Z,71.10
2018-06-20T19:22:50.013Z,71.90
2018-06-20T19:26:53.820Z,72.60
2018-06-20T19:30:57.411Z,73.00
2018-06-20T19:35:01.766Z,73.40
2018-06-20T19:39:12.676Z,73.10
2018-06-20T19:47:20.000Z,74.30
2018-06-20T19:51:23.535Z,73.90
2018-06-20T19:55:27.074Z,74.00
2018-06-20T19:59:31.301Z,74.80
2018-06-20T20:03:35.044Z,74.10
2018-06-20T20:07:38.804Z,74.40
2018-06-20T20:11:43.355Z,74.50
2018-06-20T20:15:48.255Z,73.80
2018-06-20T20:19:51.875Z,73.50
2018-06-20T20:23:56.908Z,74.00
2018-06-20T20:28:00.592Z,74.20
2018-06-20T20:32:05.074Z,73.90
2018-06-20T20:36:09.964Z,74.20
2018-06-20T20:40:13.910Z,74.60
2018-06-20T20:44:18.839Z,74.50
2018-06-20T20:48:30.590Z,74.10
2018-06-20T20:52:34.199Z,74.60
2018-06-20T20:56:38.150Z,74.70
2018-06-20T21:00:42.147Z,75.30
2018-06-20T21:04:46.145Z,75.20
2018-06-20T21:08:50.136Z,75.50
2018-06-20T21:12:53.744Z,75.80
2018-06-20T21:16:57.459Z,75.90
2018-06-20T21:21:03.163Z,75.70
2018-06-20T21:25:06.777Z,75.90
2018-06-20T21:29:10.359Z,76.00
2018-06-20T21:33:14.228Z,75.50
2018-06-20T21:37:18.110Z,76.00
2018-06-20T21:41:21.807Z,75.80
2018-06-20T21:45:25.330Z,76.60
2018-06-20T21:49:29.002Z,76.00
2018-06-20T21:57:36.010Z,76.60
2018-06-20T22:01:44.965Z,77.00
2018-06-20T22:05:49.355Z,77.10
2018-06-20T22:09:53.242Z,76.80
2018-06-20T22:13:56.796Z,77.00
2018-06-20T22:18:00.301Z,76.70
2018-06-20T22:22:04.019Z,76.90
2018-06-20T22:26:14.153Z,77.50
2018-06-20T22:30:17.935Z,77.50
2018-06-20T22:34:21.650Z,77.90
2018-06-20T22:38:25.308Z,77.90
2018-06-20T22:42:32.607Z,77.60
2018-06-20T22:46:36.313Z,77.50
2018-06-20T22:50:39.815Z,77.70
2018-06-20T22:54:45.459Z,78.30
2018-06-20T22:58:49.726Z,77.20
2018-06-20T23:02:53.807Z,77.40
2018-06-20T23:06:57.447Z,77.20
2018-06-20T23:15:05.817Z,80.10
2018-06-20T23:19:09.858Z,80.90
2018-06-20T23:23:13.657Z,81.20
2018-06-20T23:27:17.468Z,79.30
2018-06-20T23:31:21.235Z,78.50
2018-06-20T23:35:29.131Z,78.50
2018-06-20T23:39:32.618Z,78.30
2018-06-20T23:43:36.291Z,79.10
2018-06-20T23:47:39.881Z,79.60
2018-06-20T23:51:43.806Z,78.80
2018-06-20T23:55:47.674Z,78.80
2018-06-20T23:59:51.302Z,79.20
